Time;durP1;ratioP1;P1;durP2;ratioP2;P2;SDS_P1;SDS_P2;PMS_P1;PMS_P2;Temp;Humidity;BMP_temperature;BMP_pressure;BME280_temperature;BME280_humidity;BME280_pressure;Samples;Min_cycle;Max_cycle;Signal;HPM_P1;HPM_P2
2023/11/04 00:00:42;;;;;;;;;;;;;;;;;;4980896;28;19929;-83
2023/11/04 00:03:07;;;;;;;;;;;;;;;;;;4979085;28;19918;-84
2023/11/04 00:05:32;;;;;;;;;;;;;;;;;;4979794;28;19918;-83
2023/11/04 00:07:57;;;;;;;;;;;;;;;;;;4964017;28;20009;-85
2023/11/04 00:10:23;;;;;;;;;;;;;;;;;;4978499;28;19925;-85
2023/11/04 00:12:48;;;;;;;;;;;;;;;;;;4965006;28;19965;-84
2023/11/04 00:15:13;;;;;;;;;;;;;;;;;;4966180;28;19919;-85
2023/11/04 00:17:39;;;;;;;;;;;;;;;;;;4966302;28;19919;-83
2023/11/04 00:20:04;;;;;;;;;;;;;;;;;;4966767;28;20371;-84
2023/11/04 00:22:29;;;;;;;;;;;;;;;;;;4965760;28;19985;-85
2023/11/04 00:24:54;;;;;;;;;;;;;;;;;;4965967;28;19925;-84
2023/11/04 00:27:20;;;;;;;;;;;;;;;;;;4963563;28;19918;-84
2023/11/04 00:29:45;;;;;;;;;;;;;;;;;;4965130;28;19918;-84
2023/11/04 00:32:10;;;;;;;;;;;;;;;;;;4964473;28;19929;-85
2023/11/04 00:34:35;;;;;;;;;;;;;;;;;;4965422;28;19946;-83
2023/11/04 00:37:01;;;;;;;;;;;;;;;;;;4979547;28;20428;-85
2023/11/04 00:39:26;;;;;;;;;;;;;;;;;;4967505;28;20315;-84
2023/11/04 00:41:51;;;;;;;;;;;;;;;;;;4980426;28;20383;-83
2023/11/04 00:44:17;;;;;;;;;;;;;;;;;;4965087;28;19926;-85
2023/11/04 00:46:42;;;;;;;;;;;;;;;;;;4965343;28;19918;-83
2023/11/04 00:49:07;;;;;;;;;;;;;;;;;;4964786;28;19918;-82
2023/11/04 00:51:32;;;;;;;;;;;;;;;;;;4965873;28;20162;-84
2023/11/04 00:53:57;;;;;;;;;;;;;;;;;;4971907;28;19937;-85
2023/11/04 00:56:22;;;;;;;;;;;;;;;;;;4971726;28;19974;-86
2023/11/04 00:58:47;;;;;;;;;;;;;;;;;;4971884;28;19919;-84
2023/11/04 01:01:14;;;;;;;;;;;;;;;;;;4966704;28;19934;-86
2023/11/04 01:03:39;;;;;;;;;;;;;;;;;;4966677;28;19918;-84
2023/11/04 01:06:04;;;;;;;;;;;;;;;;;;4981603;28;19937;-83
2023/11/04 01:08:29;;;;;;;;;;;;;;;;;;4966274;28;20058;-83
2023/11/04 01:10:54;;;;;;;;;;;;;;;;;;4982805;28;19999;-84
2023/11/04 01:13:19;;;;;;;;;;;;;;;;;;4968673;28;19946;-85
2023/11/04 01:15:45;;;;;;;;;;;;;;;;;;4982920;28;20399;-83
2023/11/04 01:18:10;;;;;;;;;;;;;;;;;;4967366;28;19968;-85
2023/11/04 01:20:35;;;;;;;;;;;;;;;;;;4982165;28;19918;-84
2023/11/04 01:23:00;;;;;;;;;;;;;;;;;;4981725;28;19918;-84
2023/11/04 01:25:25;;;;;;;;;;;;;;;;;;4966300;28;19922;-86
2023/11/04 01:27:50;;;;;;;;;;;;;;;;;;4966518;28;19919;-84
2023/11/04 01:30:15;;;;;;;;;;;;;;;;;;4964449;28;19914;-83
2023/11/04 01:32:41;;;;;;;;;;;;;;;;;;4964525;28;19918;-85
2023/11/04 01:35:07;;;;;;;;;;;;;;;;;;4964149;28;19922;-87
2023/11/04 01:37:32;;;;;;;;;;;;;;;;;;4964052;28;19954;-85
2023/11/04 01:39:58;;;;;;;;;;;;;;;;;;4970220;28;19998;-84
2023/11/04 01:42:23;;;;;;;;;;;;;;;;;;4987460;28;19919;-85
2023/11/04 01:44:48;;;;;;;;;;;;;;;;;;4985027;28;19982;-85
2023/11/04 01:47:13;;;;;;;;;;;;;;;;;;4984890;28;19942;-84
2023/11/04 01:49:38;;;;;;;;;;;;;;;;;;4984874;28;19919;-85
2023/11/04 01:52:03;;;;;;;;;;;;;;;;;;4970251;28;19921;-85
2023/11/04 01:54:28;;;;;;;;;;;;;;;;;;4967904;28;19933;-85
2023/11/04 01:56:53;;;;;;;;;;;;;;;;;;4967734;28;19932;-85
2023/11/04 01:59:19;;;;;;;;;;;;;;;;;;4962847;29;19925;-83
2023/11/04 02:01:45;;;;;;;;;;;;;;;;;;4961526;28;20423;-85
2023/11/04 02:04:10;;;;;;;;;;;;;;;;;;4961101;28;19918;-85
2023/11/04 02:06:36;;;;;;;;;;;;;;;;;;4959396;28;19922;-85
2023/11/04 02:09:01;;;;;;;;;;;;;;;;;;4960944;28;20351;-84
2023/11/04 02:11:26;;;;;;;;;;;;;;;;;;4960963;28;19919;-85
2023/11/04 02:13:51;;;;;;;;;;;;;;;;;;4974539;28;20534;-84
2023/11/04 02:16:16;;;;;;;;;;;;;;;;;;4976040;28;19914;-84
2023/11/04 02:18:41;;;;;;;;;;;;;;;;;;4958793;28;19938;-84
2023/11/04 02:21:06;;;;;;;;;;;;;;;;;;4959838;28;20008;-84
2023/11/04 02:23:31;;;;;;;;;;;;;;;;;;4962299;28;19918;-84
2023/11/04 02:25:56;;;;;;;;;;;;;;;;;;4960435;28;19926;-84
2023/11/04 02:28:22;;;;;;;;;;;;;;;;;;4959962;28;19926;-84
2023/11/04 02:30:47;;;;;;;;;;;;;;;;;;4954198;28;20277;-84
2023/11/04 02:33:12;;;;;;;;;;;;;;;;;;4972478;28;20024;-85
2023/11/04 02:35:37;;;;;;;;;;;;;;;;;;4971938;28;19985;-84
2023/11/04 02:38:02;;;;;;;;;;;;;;;;;;4958527;28;19924;-86
2023/11/04 02:40:28;;;;;;;;;;;;;;;;;;4959951;28;19922;-84
2023/11/04 02:42:53;;;;;;;;;;;;;;;;;;4956764;28;19942;-84
2023/11/04 02:45:18;;;;;;;;;;;;;;;;;;4973415;28;19922;-84
2023/11/04 02:47:43;;;;;;;;;;;;;;;;;;4972841;28;19965;-84
2023/11/04 02:50:08;;;;;;;;;;;;;;;;;;4959278;28;19923;-84
2023/11/04 02:52:33;;;;;;;;;;;;;;;;;;4973317;28;19929;-85
2023/11/04 02:54:58;;;;;;;;;;;;;;;;;;4959426;28;19926;-84
2023/11/04 02:57:23;;;;;;;;;;;;;;;;;;4959265;28;19966;-85
2023/11/04 02:59:48;;;;;;;;;;;;;;;;;;4958640;28;19965;-83
2023/11/04 03:02:14;;;;;;;;;;;;;;;;;;4955219;28;20473;-85
2023/11/04 03:04:39;;;;;;;;;;;;;;;;;;4957683;28;19922;-84
2023/11/04 03:07:05;;;;;;;;;;;;;;;;;;4973812;28;19922;-83
2023/11/04 03:09:30;;;;;;;;;;;;;;;;;;4973714;28;19925;-84
2023/11/04 03:11:56;;;;;;;;;;;;;;;;;;4972779;28;19922;-84
2023/11/04 03:14:21;;;;;;;;;;;;;;;;;;4957628;28;20304;-85
2023/11/04 03:16:47;;;;;;;;;;;;;;;;;;4958176;28;20303;-84
2023/11/04 03:19:12;;;;;;;;;;;;;;;;;;4957377;28;19934;-84
2023/11/04 03:21:37;;;;;;;;;;;;;;;;;;4957346;28;19990;-85
2023/11/04 03:24:02;;;;;;;;;;;;;;;;;;4957262;28;19941;-84
2023/11/04 03:26:27;;;;;;;;;;;;;;;;;;4955298;28;20364;-84
2023/11/04 03:28:53;;;;;;;;;;;;;;;;;;4957124;28;19918;-85
2023/11/04 03:31:18;;;;;;;;;;;;;;;;;;4966640;28;19919;-84
2023/11/04 03:33:43;;;;;;;;;;;;;;;;;;4969682;28;19941;-84
2023/11/04 03:36:09;;;;;;;;;;;;;;;;;;4956608;28;19918;-84
2023/11/04 03:38:34;;;;;;;;;;;;;;;;;;4969450;28;19926;-83
2023/11/04 03:40:59;;;;;;;;;;;;;;;;;;4969541;28;19922;-85
2023/11/04 03:43:25;;;;;;;;;;;;;;;;;;4953884;28;20152;-83
2023/11/04 03:45:50;;;;;;;;;;;;;;;;;;4956212;28;19919;-83
2023/11/04 03:48:15;;;;;;;;;;;;;;;;;;4969707;28;19942;-83
2023/11/04 03:50:40;;;;;;;;;;;;;;;;;;4972086;28;19918;-83
2023/11/04 03:53:05;;;;;;;;;;;;;;;;;;4959065;28;19926;-82
2023/11/04 03:55:31;;;;;;;;;;;;;;;;;;4958387;28;19925;-83
2023/11/04 03:57:56;;;;;;;;;;;;;;;;;;4954590;28;19919;-84
2023/11/04 04:00:21;;;;;;;;;;;;;;;;;;4951477;28;20099;-84
2023/11/04 04:02:46;;;;;;;;;;;;;;;;;;4952521;28;19914;-83
2023/11/04 04:05:11;;;;;;;;;;;;;;;;;;4952700;28;20114;-81
2023/11/04 04:07:36;;;;;;;;;;;;;;;;;;4965850;28;20021;-83
2023/11/04 04:10:01;;;;;;;;;;;;;;;;;;4966645;28;19922;-83
2023/11/04 04:12:26;;;;;;;;;;;;;;;;;;4951482;28;19922;-83
2023/11/04 04:14:51;;;;;;;;;;;;;;;;;;4952389;28;20288;-84
2023/11/04 04:17:17;;;;;;;;;;;;;;;;;;4969547;28;19918;-83
2023/11/04 04:19:42;;;;;;;;;;;;;;;;;;4967435;28;19974;-82
2023/11/04 04:22:08;;;;;;;;;;;;;;;;;;4967943;28;19926;-83
2023/11/04 04:24:33;;;;;;;;;;;;;;;;;;4954677;28;19918;-84
2023/11/04 04:26:58;;;;;;;;;;;;;;;;;;4955995;28;19978;-83
2023/11/04 04:29:24;;;;;;;;;;;;;;;;;;4956294;28;19929;-84
2023/11/04 04:31:49;;;;;;;;;;;;;;;;;;4955809;28;19958;-83
2023/11/04 04:34:14;;;;;;;;;;;;;;;;;;4957939;28;19926;-83
2023/11/04 04:36:39;;;;;;;;;;;;;;;;;;4958568;28;19922;-86
2023/11/04 04:39:04;;;;;;;;;;;;;;;;;;4964202;28;19941;-86
2023/11/04 04:41:29;;;;;;;;;;;;;;;;;;4979174;28;20319;-84
2023/11/04 04:43:54;;;;;;;;;;;;;;;;;;4979604;28;19918;-84
2023/11/04 04:46:19;;;;;;;;;;;;;;;;;;4963456;28;19957;-85
2023/11/04 04:48:44;;;;;;;;;;;;;;;;;;4965326;28;20051;-83
2023/11/04 04:51:09;;;;;;;;;;;;;;;;;;4980406;28;20300;-86
2023/11/04 04:53:36;;;;;;;;;;;;;;;;;;4980759;28;19922;-84
2023/11/04 04:56:01;;;;;;;;;;;;;;;;;;4965356;28;19922;-84
2023/11/04 04:58:27;;;;;;;;;;;;;;;;;;4960225;28;19918;-84
2023/11/04 05:00:52;;;;;;;;;;;;;;;;;;4965475;28;19942;-84
2023/11/04 05:03:17;;;;;;;;;;;;;;;;;;4964758;28;19922;-83
2023/11/04 05:05:42;;;;;;;;;;;;;;;;;;4964684;28;20005;-84
2023/11/04 05:08:07;;;;;;;;;;;;;;;;;;4978560;28;19941;-83
2023/11/04 05:10:33;;;;;;;;;;;;;;;;;;4979808;28;19918;-85
2023/11/04 05:12:58;;;;;;;;;;;;;;;;;;4965164;28;19922;-83
2023/11/04 05:15:23;;;;;;;;;;;;;;;;;;4978926;28;19922;-84
2023/11/04 05:17:48;;;;;;;;;;;;;;;;;;4982332;28;19970;-85
2023/11/04 05:20:14;;;;;;;;;;;;;;;;;;4963938;28;19918;-82
2023/11/04 05:22:39;;;;;;;;;;;;;;;;;;4965484;28;20013;-83
2023/11/04 05:25:04;;;;;;;;;;;;;;;;;;4977908;28;19918;-84
2023/11/04 05:27:29;;;;;;;;;;;;;;;;;;4963815;28;19941;-84
2023/11/04 05:29:54;;;;;;;;;;;;;;;;;;4978748;28;19981;-86
2023/11/04 05:32:20;;;;;;;;;;;;;;;;;;4964005;28;19978;-83
2023/11/04 05:34:45;;;;;;;;;;;;;;;;;;4963625;28;19926;-86
2023/11/04 05:37:10;;;;;;;;;;;;;;;;;;4978994;28;19986;-83
2023/11/04 05:39:35;;;;;;;;;;;;;;;;;;4982098;28;19992;-86
2023/11/04 05:42:02;;;;;;;;;;;;;;;;;;4964131;28;19965;-84
2023/11/04 05:44:27;;;;;;;;;;;;;;;;;;4963312;28;20005;-85
2023/11/04 05:46:52;;;;;;;;;;;;;;;;;;4963541;28;19925;-83
2023/11/04 05:49:17;;;;;;;;;;;;;;;;;;4977652;28;19926;-84
2023/11/04 05:54:15;;;;;;;;;;;;;;;;;;4994083;23;20304;-82
2023/11/04 05:56:40;;;;;;;;;;;;;;;;;;5004315;28;19928;-82
2023/11/04 05:59:06;;;;;;;;;;;;;;;;;;5033034;28;20403;-82
2023/11/04 06:01:31;;;;;;;;;;;;;;;;;;5033331;28;19924;-82
2023/11/04 06:03:56;;;;;;;;;;;;;;;;;;5011797;28;19925;-82
2023/11/04 06:06:21;;;;;;;;;;;;;;;;;;5013704;28;19925;-81
2023/11/04 06:08:46;;;;;;;;;;;;;;;;;;5010923;28;19963;-82
2023/11/04 06:11:11;;;;;;;;;;;;;;;;;;5015744;28;19924;-82
2023/11/04 06:13:36;;;;;;;;;;;;;;;;;;5030155;28;20007;-82
2023/11/04 06:16:02;;;;;;;;;;;;;;;;;;5014264;28;19921;-82
2023/11/04 06:18:27;;;;;;;;;;;;;;;;;;5018074;28;19921;-81
2023/11/04 06:20:52;;;;;;;;;;;;;;;;;;5015315;28;19923;-81
2023/11/04 06:23:18;;;;;;;;;;;;;;;;;;5031211;28;19923;-82
2023/11/04 06:25:43;;;;;;;;;;;;;;;;;;5016431;28;20281;-82
2023/11/04 06:28:08;;;;;;;;;;;;;;;;;;5018882;28;19917;-82
2023/11/04 06:30:33;;;;;;;;;;;;;;;;;;5018749;28;19961;-82
2023/11/04 06:32:59;;;;;;;;;;;;;;;;;;5018712;28;19917;-82
2023/11/04 06:35:25;;;;;;;;;;;;;;;;;;5021256;28;19922;-82
2023/11/04 06:37:51;;;;;;;;;;;;;;;;;;5014902;28;19953;-82
2023/11/04 06:40:16;;;;;;;;;;;;;;;;;;5016705;28;19925;-82
2023/11/04 06:42:41;;;;;;;;;;;;;;;;;;5013044;28;19921;-82
2023/11/04 06:45:06;;;;;;;;;;;;;;;;;;4996800;28;19929;-82
2023/11/04 06:47:32;;;;;;;;;;;;;;;;;;5012458;28;20354;-82
2023/11/04 06:49:57;;;;;;;;;;;;;;;;;;5011741;28;19918;-82
2023/11/04 06:52:23;;;;;;;;;;;;;;;;;;5012272;28;19968;-82
2023/11/04 06:54:48;;;;;;;;;;;;;;;;;;4997846;28;19925;-82
2023/11/04 06:57:13;;;;;;;;;;;;;;;;;;4999118;28;19964;-82
2023/11/04 06:59:40;;;;;;;;;;;;;;;;;;5012906;28;19918;-82
2023/11/04 07:02:07;;;;;;;;;;;;;;;;;;5010588;28;19921;-82
2023/11/04 07:04:32;;;;;;;;;;;;;;;;;;5010339;28;20316;-82
2023/11/04 07:06:57;;;;;;;;;;;;;;;;;;5010423;28;20405;-82
2023/11/04 07:09:22;;;;;;;;;;;;;;;;;;5010558;28;19917;-82
2023/11/04 07:11:48;;;;;;;;;;;;;;;;;;4995237;28;19925;-82
2023/11/04 07:14:15;;;;;;;;;;;;;;;;;;5003968;28;19928;-82
2023/11/04 07:16:40;;;;;;;;;;;;;;;;;;5009830;28;19921;-82
2023/11/04 07:19:06;;;;;;;;;;;;;;;;;;4994609;28;19928;-81
2023/11/04 07:21:31;;;;;;;;;;;;;;;;;;5008918;28;19924;-82
2023/11/04 07:23:56;;;;;;;;;;;;;;;;;;5009077;28;19979;-82
2023/11/04 07:26:21;;;;;;;;;;;;;;;;;;4990906;28;19925;-82
2023/11/04 07:28:46;;;;;;;;;;;;;;;;;;4979788;28;20105;-82
2023/11/04 07:31:11;;;;;;;;;;;;;;;;;;5011194;28;19918;-82
2023/11/04 07:33:37;;;;;;;;;;;;;;;;;;4995870;28;20238;-82
2023/11/04 07:36:02;;;;;;;;;;;;;;;;;;4996510;28;19922;-82
2023/11/04 07:38:28;;;;;;;;;;;;;;;;;;5013295;28;19924;-82
2023/11/04 07:40:53;;;;;;;;;;;;;;;;;;4996504;28;20390;-82
2023/11/04 07:43:18;;;;;;;;;;;;;;;;;;5014419;28;19918;-82
2023/11/04 07:45:43;;;;;;;;;;;;;;;;;;4998691;28;19968;-82
2023/11/04 07:48:08;;;;;;;;;;;;;;;;;;4995133;28;19924;-82
2023/11/04 07:50:36;;;;;;;;;;;;;;;;;;5012834;28;19918;-82
2023/11/04 07:53:01;;;;;;;;;;;;;;;;;;5012632;28;19941;-82
2023/11/04 07:55:26;;;;;;;;;;;;;;;;;;5015005;28;19921;-82
2023/11/04 07:57:52;;;;;;;;;;;;;;;;;;5013791;28;20000;-81
2023/11/04 08:00:17;;;;;;;;;;;;;;;;;;5002614;28;19918;-81
2023/11/04 08:02:42;;;;;;;;;;;;;;;;;;5014167;28;19952;-81
2023/11/04 08:05:09;;;;;;;;;;;;;;;;;;4996578;28;20396;-81
2023/11/04 08:07:35;;;;;;;;;;;;;;;;;;4999348;28;19924;-82
2023/11/04 08:10:00;;;;;;;;;;;;;;;;;;4996908;28;20012;-81
2023/11/04 08:12:25;;;;;;;;;;;;;;;;;;5011899;28;19918;-81
2023/11/04 08:14:51;;;;;;;;;;;;;;;;;;4997444;28;19997;-81
2023/11/04 08:17:16;;;;;;;;;;;;;;;;;;4997177;28;19932;-81
2023/11/04 08:19:41;;;;;;;;;;;;;;;;;;4995019;28;19918;-81
2023/11/04 08:22:07;;;;;;;;;;;;;;;;;;4985496;28;19918;-81
2023/11/04 08:24:32;;;;;;;;;;;;;;;;;;4997652;28;19922;-82
2023/11/04 08:26:57;;;;;;;;;;;;;;;;;;4995614;28;20294;-82
2023/11/04 08:29:23;;;;;;;;;;;;;;;;;;4996089;28;19925;-82
2023/11/04 08:31:48;;;;;;;;;;;;;;;;;;5011820;28;19924;-82
2023/11/04 08:34:13;;;;;;;;;;;;;;;;;;4995981;28;19936;-82
2023/11/04 08:36:38;;;;;;;;;;;;;;;;;;5005005;28;19978;-82
2023/11/04 08:39:03;;;;;;;;;;;;;;;;;;5015196;28;19921;-82
2023/11/04 08:41:28;;;;;;;;;;;;;;;;;;4998864;28;19933;-83
2023/11/04 08:43:53;;;;;;;;;;;;;;;;;;5014645;28;19926;-82
2023/11/04 08:46:19;;;;;;;;;;;;;;;;;;5001947;28;19918;-81
2023/11/04 08:48:44;;;;;;;;;;;;;;;;;;4993644;28;20270;-82
2023/11/04 08:51:09;;;;;;;;;;;;;;;;;;4988082;28;19957;-82
2023/11/04 08:53:34;;;;;;;;;;;;;;;;;;5009424;28;19918;-82
2023/11/04 08:55:59;;;;;;;;;;;;;;;;;;5014021;28;20006;-82
2023/11/04 08:58:24;;;;;;;;;;;;;;;;;;5013956;28;20021;-82
2023/11/04 09:00:50;;;;;;;;;;;;;;;;;;5011333;28;19924;-82
2023/11/04 09:03:16;;;;;;;;;;;;;;;;;;4990490;28;20021;-82
2023/11/04 09:05:41;;;;;;;;;;;;;;;;;;4999263;28;19976;-82
2023/11/04 09:08:06;;;;;;;;;;;;;;;;;;4997825;28;19921;-82
2023/11/04 09:10:31;;;;;;;;;;;;;;;;;;4996835;28;19924;-82
2023/11/04 09:12:57;;;;;;;;;;;;;;;;;;4994752;28;20008;-82
2023/11/04 09:15:22;;;;;;;;;;;;;;;;;;4986407;28;20089;-82
2023/11/04 09:17:47;;;;;;;;;;;;;;;;;;4991074;28;19964;-83
2023/11/04 09:20:12;;;;;;;;;;;;;;;;;;5011100;28;19918;-83
2023/11/04 09:22:37;;;;;;;;;;;;;;;;;;4993453;28;20373;-83
2023/11/04 09:25:04;;;;;;;;;;;;;;;;;;5012747;28;19934;-82
2023/11/04 09:27:30;;;;;;;;;;;;;;;;;;5001617;28;20000;-85
2023/11/04 09:29:55;;;;;;;;;;;;;;;;;;5010207;28;19996;-83
2023/11/04 09:32:20;;;;;;;;;;;;;;;;;;5012906;28;19918;-83
2023/11/04 09:34:46;;;;;;;;;;;;;;;;;;5014224;28;19918;-82
2023/11/04 09:37:11;;;;;;;;;;;;;;;;;;4996198;28;19922;-83
2023/11/04 09:39:36;;;;;;;;;;;;;;;;;;5011399;28;20015;-83
2023/11/04 09:42:01;;;;;;;;;;;;;;;;;;4996551;28;20444;-82
2023/11/04 09:44:27;;;;;;;;;;;;;;;;;;4994268;28;19918;-82
2023/11/04 09:46:52;;;;;;;;;;;;;;;;;;4996975;28;19924;-82
2023/11/04 09:49:18;;;;;;;;;;;;;;;;;;4997975;28;19918;-82
2023/11/04 09:51:43;;;;;;;;;;;;;;;;;;5010554;28;19921;-81
2023/11/04 09:54:11;;;;;;;;;;;;;;;;;;4995428;28;19921;-82
2023/11/04 09:56:37;;;;;;;;;;;;;;;;;;4996350;28;19972;-82
2023/11/04 09:59:04;;;;;;;;;;;;;;;;;;4999403;28;19917;-82
2023/11/04 10:01:29;;;;;;;;;;;;;;;;;;5001709;28;19917;-83
2023/11/04 10:03:55;;;;;;;;;;;;;;;;;;5013911;28;19917;-80
2023/11/04 10:06:22;;;;;;;;;;;;;;;;;;4995624;28;20337;-82
2023/11/04 10:08:47;;;;;;;;;;;;;;;;;;5012969;28;19924;-81
2023/11/04 10:11:12;;;;;;;;;;;;;;;;;;5012973;28;20016;-81
2023/11/04 10:13:39;;;;;;;;;;;;;;;;;;4996902;28;19917;-82
2023/11/04 10:16:04;;;;;;;;;;;;;;;;;;5010904;28;19972;-81
2023/11/04 10:18:29;;;;;;;;;;;;;;;;;;4979531;28;20012;-81
2023/11/04 10:20:54;;;;;;;;;;;;;;;;;;5007942;28;19922;-78
2023/11/04 10:23:19;;;;;;;;;;;;;;;;;;5012081;28;19956;-78
2023/11/04 10:25:44;;;;;;;;;;;;;;;;;;5011476;28;19925;-79
2023/11/04 10:28:12;;;;;;;;;;;;;;;;;;5012220;28;20354;-81
2023/11/04 10:30:37;;;;;;;;;;;;;;;;;;5012069;28;19917;-81
2023/11/04 10:33:02;;;;;;;;;;;;;;;;;;5013777;28;20392;-80
2023/11/04 10:35:27;;;;;;;;;;;;;;;;;;5011225;28;19922;-82
2023/11/04 10:37:52;;;;;;;;;;;;;;;;;;5012341;28;19921;-82
2023/11/04 10:40:18;;;;;;;;;;;;;;;;;;5011140;28;20301;-83
2023/11/04 10:42:43;;;;;;;;;;;;;;;;;;5012936;28;19924;-82
2023/11/04 10:45:09;;;;;;;;;;;;;;;;;;5012765;28;20259;-82
2023/11/04 10:47:35;;;;;;;;;;;;;;;;;;5011858;28;19918;-83
2023/11/04 10:50:00;;;;;;;;;;;;;;;;;;5017472;28;19944;-81
2023/11/04 10:52:25;;;;;;;;;;;;;;;;;;4983831;28;19921;-80
2023/11/04 10:54:50;;;;;;;;;;;;;;;;;;4994757;28;19917;-80
2023/11/04 10:57:15;;;;;;;;;;;;;;;;;;4990804;28;19926;-80
2023/11/04 10:59:41;;;;;;;;;;;;;;;;;;4995943;28;20255;-80
2023/11/04 11:02:06;;;;;;;;;;;;;;;;;;5011754;28;19918;-82
2023/11/04 11:04:31;;;;;;;;;;;;;;;;;;5010078;28;20015;-81
2023/11/04 11:06:57;;;;;;;;;;;;;;;;;;5011266;28;19921;-85
2023/11/04 11:09:23;;;;;;;;;;;;;;;;;;5011884;28;19917;-84
2023/11/04 11:11:48;;;;;;;;;;;;;;;;;;5011460;28;19917;-83
2023/11/04 11:14:13;;;;;;;;;;;;;;;;;;5012178;28;20377;-84
2023/11/04 11:16:39;;;;;;;;;;;;;;;;;;5010110;28;19922;-81
2023/11/04 11:19:04;;;;;;;;;;;;;;;;;;5009909;28;19906;-80
2023/11/04 11:21:32;;;;;;;;;;;;;;;;;;5011228;28;19918;-81
2023/11/04 11:23:57;;;;;;;;;;;;;;;;;;5011298;28;19940;-82
2023/11/04 11:26:22;;;;;;;;;;;;;;;;;;4992759;28;19918;-83
2023/11/04 11:28:47;;;;;;;;;;;;;;;;;;4981574;28;19972;-83
2023/11/04 11:31:12;;;;;;;;;;;;;;;;;;4999101;28;19918;-83
2023/11/04 11:33:37;;;;;;;;;;;;;;;;;;4999177;28;19990;-83
2023/11/04 11:36:06;;;;;;;;;;;;;;;;;;5015561;28;19922;-83
2023/11/04 11:38:31;;;;;;;;;;;;;;;;;;5001936;28;19956;-84
2023/11/04 11:40:56;;;;;;;;;;;;;;;;;;5000064;28;19922;-83
2023/11/04 11:43:21;;;;;;;;;;;;;;;;;;5007808;28;19917;-82
2023/11/04 11:45:47;;;;;;;;;;;;;;;;;;5014701;28;20053;-82
2023/11/04 11:48:12;;;;;;;;;;;;;;;;;;5011076;28;19921;-82
2023/11/04 11:50:38;;;;;;;;;;;;;;;;;;5003874;28;19949;-82
2023/11/04 11:53:03;;;;;;;;;;;;;;;;;;4998407;28;19918;-82
2023/11/04 11:55:28;;;;;;;;;;;;;;;;;;5014305;28;20012;-82
2023/11/04 11:57:53;;;;;;;;;;;;;;;;;;5014046;28;19976;-82
2023/11/04 12:00:18;;;;;;;;;;;;;;;;;;4998824;28;19924;-86
2023/11/04 12:02:43;;;;;;;;;;;;;;;;;;4999099;28;20028;-83
2023/11/04 12:05:09;;;;;;;;;;;;;;;;;;5013679;28;19937;-82
2023/11/04 12:07:34;;;;;;;;;;;;;;;;;;4998543;28;19918;-81
2023/11/04 12:09:59;;;;;;;;;;;;;;;;;;4998836;28;19937;-81
2023/11/04 12:12:24;;;;;;;;;;;;;;;;;;5011224;28;20350;-82
2023/11/04 12:14:50;;;;;;;;;;;;;;;;;;5012636;28;19924;-82
2023/11/04 12:17:15;;;;;;;;;;;;;;;;;;5012919;28;19983;-82
2023/11/04 12:19:40;;;;;;;;;;;;;;;;;;4997158;28;19918;-82
2023/11/04 12:22:05;;;;;;;;;;;;;;;;;;5010134;28;19922;-84
2023/11/04 12:24:30;;;;;;;;;;;;;;;;;;5013499;28;19917;-84
2023/11/04 12:26:55;;;;;;;;;;;;;;;;;;4992140;28;19933;-85
2023/11/04 12:29:20;;;;;;;;;;;;;;;;;;5005008;28;20444;-85
2023/11/04 12:31:45;;;;;;;;;;;;;;;;;;5008626;28;19949;-85
2023/11/04 12:34:10;;;;;;;;;;;;;;;;;;5014452;28;19921;-85
2023/11/04 12:36:35;;;;;;;;;;;;;;;;;;4999321;28;19976;-82
2023/11/04 12:39:01;;;;;;;;;;;;;;;;;;5016923;28;19972;-83
2023/11/04 12:41:27;;;;;;;;;;;;;;;;;;4999584;28;19917;-87
2023/11/04 12:43:52;;;;;;;;;;;;;;;;;;5001536;28;19918;-85
2023/11/04 12:46:17;;;;;;;;;;;;;;;;;;5022769;28;20397;-85
2023/11/04 12:48:44;;;;;;;;;;;;;;;;;;5025512;28;19924;-83
2023/11/04 12:51:09;;;;;;;;;;;;;;;;;;4997915;28;20413;-83
2023/11/04 12:53:34;;;;;;;;;;;;;;;;;;5012652;28;20366;-83
2023/11/04 12:55:59;;;;;;;;;;;;;;;;;;5009999;28;20037;-84
2023/11/04 12:58:24;;;;;;;;;;;;;;;;;;5012727;28;19921;-83
2023/11/04 13:00:49;;;;;;;;;;;;;;;;;;4998288;28;19939;-84
2023/11/04 13:03:14;;;;;;;;;;;;;;;;;;5013613;28;19927;-85
2023/11/04 13:05:40;;;;;;;;;;;;;;;;;;5012982;28;19918;-85
2023/11/04 13:08:06;;;;;;;;;;;;;;;;;;5014161;28;19937;-85
2023/11/04 13:10:31;;;;;;;;;;;;;;;;;;4995405;28;19917;-84
2023/11/04 13:12:56;;;;;;;;;;;;;;;;;;5013999;28;19925;-84
2023/11/04 13:15:21;;;;;;;;;;;;;;;;;;4997685;28;19929;-85
2023/11/04 13:17:46;;;;;;;;;;;;;;;;;;4998151;28;19989;-85
2023/11/04 13:20:11;;;;;;;;;;;;;;;;;;5013475;28;19914;-85
2023/11/04 13:22:37;;;;;;;;;;;;;;;;;;5014662;28;19917;-85
2023/11/04 13:25:05;;;;;;;;;;;;;;;;;;5014032;28;19936;-85
2023/11/04 13:27:30;;;;;;;;;;;;;;;;;;5013622;28;19918;-85
2023/11/04 13:29:55;;;;;;;;;;;;;;;;;;4998438;28;19948;-85
2023/11/04 13:32:23;;;;;;;;;;;;;;;;;;5010192;28;19968;-86
2023/11/04 13:34:48;;;;;;;;;;;;;;;;;;4999476;28;19924;-85
2023/11/04 13:37:14;;;;;;;;;;;;;;;;;;4998016;28;19922;-85
2023/11/04 13:39:39;;;;;;;;;;;;;;;;;;5006653;28;19917;-85
2023/11/04 13:42:04;;;;;;;;;;;;;;;;;;4999642;28;19924;-85
2023/11/04 13:44:29;;;;;;;;;;;;;;;;;;4994054;28;19906;-84
2023/11/04 13:46:54;;;;;;;;;;;;;;;;;;4990442;28;19925;-84
2023/11/04 13:49:19;;;;;;;;;;;;;;;;;;5011546;28;19917;-85
2023/11/04 13:51:44;;;;;;;;;;;;;;;;;;5011856;28;20401;-83
2023/11/04 13:54:12;;;;;;;;;;;;;;;;;;4995322;28;20016;-84
2023/11/04 13:56:37;;;;;;;;;;;;;;;;;;4997196;28;19918;-85
2023/11/04 13:59:02;;;;;;;;;;;;;;;;;;5005391;28;20016;-84
2023/11/04 14:01:28;;;;;;;;;;;;;;;;;;4998653;28;19932;-84
2023/11/04 14:03:53;;;;;;;;;;;;;;;;;;5012893;28;19980;-84
2023/11/04 14:06:18;;;;;;;;;;;;;;;;;;4981911;28;19918;-85
2023/11/04 14:08:43;;;;;;;;;;;;;;;;;;5012372;28;20386;-84
2023/11/04 14:11:09;;;;;;;;;;;;;;;;;;5012942;28;19917;-85
2023/11/04 14:13:35;;;;;;;;;;;;;;;;;;5013513;28;19929;-85
2023/11/04 14:16:00;;;;;;;;;;;;;;;;;;4999771;28;19926;-85
2023/11/04 14:18:26;;;;;;;;;;;;;;;;;;4996879;28;19924;-85
2023/11/04 14:20:51;;;;;;;;;;;;;;;;;;5016139;28;20425;-85
2023/11/04 14:23:16;;;;;;;;;;;;;;;;;;5018202;28;19953;-85
2023/11/04 14:25:41;;;;;;;;;;;;;;;;;;4997455;28;19917;-84
2023/11/04 14:28:06;;;;;;;;;;;;;;;;;;4999252;28;19925;-83
2023/11/04 14:30:31;;;;;;;;;;;;;;;;;;4985293;28;19917;-83
2023/11/04 14:32:56;;;;;;;;;;;;;;;;;;4996329;28;19922;-83
2023/11/04 14:35:22;;;;;;;;;;;;;;;;;;4990306;28;20446;-84
2023/11/04 14:37:47;;;;;;;;;;;;;;;;;;4988203;28;20004;-83
2023/11/04 14:40:20;;;;;;;;;;;;;;;;;;5009883;28;19925;-83
2023/11/04 14:42:45;;;;;;;;;;;;;;;;;;4995665;28;19922;-84
2023/11/04 14:45:10;;;;;;;;;;;;;;;;;;4995936;28;19918;-84
2023/11/04 14:47:36;;;;;;;;;;;;;;;;;;5010372;28;19917;-83
2023/11/04 14:50:02;;;;;;;;;;;;;;;;;;5011453;28;19921;-85
2023/11/04 14:52:27;;;;;;;;;;;;;;;;;;4994075;28;19918;-85
2023/11/04 14:54:52;;;;;;;;;;;;;;;;;;5011890;28;19945;-84
2023/11/04 14:57:19;;;;;;;;;;;;;;;;;;4995487;28;20452;-84
2023/11/04 14:59:44;;;;;;;;;;;;;;;;;;5010739;28;19921;-84
2023/11/04 15:02:09;;;;;;;;;;;;;;;;;;4998863;28;19918;-85
2023/11/04 15:04:34;;;;;;;;;;;;;;;;;;4993938;28;20732;-85
2023/11/04 15:06:59;;;;;;;;;;;;;;;;;;5007094;28;19917;-84
2023/11/04 15:09:24;;;;;;;;;;;;;;;;;;4995317;28;19918;-85
2023/11/04 15:11:51;;;;;;;;;;;;;;;;;;5010723;28;19917;-85
2023/11/04 15:14:17;;;;;;;;;;;;;;;;;;4993438;28;19932;-85
2023/11/04 15:16:42;;;;;;;;;;;;;;;;;;4995451;28;19945;-86
2023/11/04 15:19:07;;;;;;;;;;;;;;;;;;4996001;28;19921;-85
2023/11/04 15:21:32;;;;;;;;;;;;;;;;;;5011507;28;19968;-85
2023/11/04 15:23:57;;;;;;;;;;;;;;;;;;5011588;28;19914;-83
2023/11/04 15:26:22;;;;;;;;;;;;;;;;;;4994680;28;19918;-83
2023/11/04 15:28:47;;;;;;;;;;;;;;;;;;4993484;28;19945;-83
2023/11/04 15:31:12;;;;;;;;;;;;;;;;;;5009650;28;19917;-83
2023/11/04 15:33:41;;;;;;;;;;;;;;;;;;4995483;28;19922;-83
2023/11/04 15:36:06;;;;;;;;;;;;;;;;;;5010895;28;19948;-84
2023/11/04 15:38:32;;;;;;;;;;;;;;;;;;4990580;28;19918;-83
2023/11/04 15:40:57;;;;;;;;;;;;;;;;;;5009320;28;19918;-83
2023/11/04 15:43:22;;;;;;;;;;;;;;;;;;5004925;28;19917;-83
2023/11/04 15:45:47;;;;;;;;;;;;;;;;;;4995947;28;20436;-83
2023/11/04 15:48:12;;;;;;;;;;;;;;;;;;4996085;28;19901;-84
2023/11/04 15:50:37;;;;;;;;;;;;;;;;;;4996630;28;19918;-84
2023/11/04 15:53:02;;;;;;;;;;;;;;;;;;4990915;28;19929;-86
2023/11/04 15:55:27;;;;;;;;;;;;;;;;;;5018791;23;19928;-85
2023/11/04 15:57:53;;;;;;;;;;;;;;;;;;5004997;28;19921;-85
2023/11/04 16:00:18;;;;;;;;;;;;;;;;;;5024987;28;20168;-86
2023/11/04 16:02:43;;;;;;;;;;;;;;;;;;5003102;28;19944;-87
2023/11/04 16:05:08;;;;;;;;;;;;;;;;;;4987533;28;19976;-86
2023/11/04 16:07:35;;;;;;;;;;;;;;;;;;4987521;28;19929;-87
2023/11/04 16:10:00;;;;;;;;;;;;;;;;;;5004837;28;19918;-87
2023/11/04 16:12:25;;;;;;;;;;;;;;;;;;4986660;28;19968;-86
2023/11/04 16:14:50;;;;;;;;;;;;;;;;;;4993095;28;19929;-86
2023/11/04 16:17:16;;;;;;;;;;;;;;;;;;4991440;28;19981;-84
2023/11/04 16:19:41;;;;;;;;;;;;;;;;;;4990666;28;19917;-86
2023/11/04 16:22:06;;;;;;;;;;;;;;;;;;5006478;28;19918;-84
2023/11/04 16:24:31;;;;;;;;;;;;;;;;;;5007743;28;19917;-85
2023/11/04 16:26:56;;;;;;;;;;;;;;;;;;5009992;28;20004;-86
2023/11/04 16:29:21;;;;;;;;;;;;;;;;;;4988761;28;19949;-85
2023/11/04 16:31:46;;;;;;;;;;;;;;;;;;5004722;28;19918;-85
2023/11/04 16:34:11;;;;;;;;;;;;;;;;;;4985930;28;20382;-86